createdAt,value
2023-03-26T00:01:09.121Z,0.40
2023-03-26T00:03:37.632Z,0.47
2023-03-26T00:06:07.651Z,0.50
2023-03-26T00:08:36.055Z,0.50
2023-03-26T00:11:04.556Z,0.37
2023-03-26T00:13:34.569Z,0.40
2023-03-26T00:16:03.600Z,0.40
2023-03-26T00:18:31.990Z,0.30
2023-03-26T00:21:01.012Z,0.40
2023-03-26T00:23:31.001Z,1.30
2023-03-26T00:26:00.842Z,0.60
2023-03-26T00:28:29.592Z,0.30
2023-03-26T00:31:05.152Z,0.40
2023-03-26T00:33:38.181Z,0.30
2023-03-26T00:36:09.917Z,1.20
2023-03-26T00:38:39.709Z,0.40
2023-03-26T00:41:17.883Z,0.40
2023-03-26T00:43:48.518Z,0.50
2023-03-26T00:46:18.482Z,0.70
2023-03-26T00:48:46.887Z,0.40
2023-03-26T00:51:17.588Z,0.30
2023-03-26T00:53:47.419Z,0.50
2023-03-26T00:56:16.011Z,0.77
2023-03-26T00:58:46.085Z,0.30
2023-03-26T01:01:18.888Z,0.43
2023-03-26T01:04:04.730Z,0.50
2023-03-26T01:06:36.145Z,0.40
2023-03-26T01:09:08.095Z,0.60
2023-03-26T01:11:36.778Z,0.80
2023-03-26T01:14:08.702Z,0.67
2023-03-26T01:16:41.637Z,0.63
2023-03-26T01:19:16.574Z,0.50
2023-03-26T01:21:44.688Z,0.50
2023-03-26T01:24:14.674Z,0.87
2023-03-26T01:27:07.899Z,1.10
2023-03-26T01:29:43.781Z,0.63
2023-03-26T01:32:28.873Z,0.50
2023-03-26T01:35:09.124Z,1.00
2023-03-26T01:37:46.858Z,0.60
2023-03-26T01:40:25.455Z,0.47
2023-03-26T01:42:57.559Z,0.87
2023-03-26T01:45:30.413Z,0.60
2023-03-26T01:47:58.938Z,0.60
2023-03-26T01:50:27.004Z,0.50
2023-03-26T01:52:55.265Z,0.60
2023-03-26T01:55:29.433Z,0.43
2023-03-26T01:58:09.326Z,0.53
2023-03-26T02:00:43.204Z,0.43
2023-03-26T02:03:23.971Z,1.03
2023-03-26T02:05:58.433Z,0.43
2023-03-26T02:08:35.542Z,0.40
2023-03-26T02:11:11.411Z,0.50
2023-03-26T02:13:40.388Z,0.63
2023-03-26T02:16:11.728Z,1.20
2023-03-26T02:18:39.970Z,0.60
2023-03-26T02:21:12.341Z,0.93
2023-03-26T02:23:46.893Z,0.80
2023-03-26T02:26:19.086Z,0.80
2023-03-26T02:28:56.808Z,1.03
2023-03-26T02:31:26.474Z,0.70
2023-03-26T02:33:55.581Z,1.00
2023-03-26T02:36:28.372Z,0.70
2023-03-26T02:39:02.246Z,0.87
2023-03-26T02:41:34.820Z,0.80
2023-03-26T02:44:09.601Z,0.70
2023-03-26T02:46:57.951Z,0.90
2023-03-26T02:49:52.349Z,0.93
2023-03-26T02:52:37.133Z,0.60
2023-03-26T02:55:05.450Z,0.70
2023-03-26T02:57:35.662Z,0.77
2023-03-26T03:00:18.665Z,0.60
2023-03-26T03:02:48.006Z,0.70
2023-03-26T03:05:38.119Z,1.27
2023-03-26T03:08:28.259Z,0.50
2023-03-26T03:11:17.205Z,1.17
2023-03-26T03:13:49.479Z,0.77
2023-03-26T03:16:21.756Z,0.73
2023-03-26T03:18:54.355Z,0.50
2023-03-26T03:21:23.864Z,1.10
2023-03-26T03:23:51.912Z,0.77
2023-03-26T03:26:22.682Z,0.50
2023-03-26T03:28:58.342Z,0.80
2023-03-26T03:31:28.496Z,0.73
2023-03-26T03:34:02.166Z,0.80
2023-03-26T03:36:38.408Z,0.70
2023-03-26T03:39:15.033Z,0.80
2023-03-26T03:41:43.324Z,0.80
2023-03-26T03:44:16.787Z,0.77
2023-03-26T03:46:45.327Z,1.00
2023-03-26T03:49:13.440Z,0.63
2023-03-26T03:51:42.513Z,0.80
2023-03-26T03:54:19.848Z,0.90
2023-03-26T03:56:49.030Z,1.03
2023-03-26T04:02:30.402Z,1.43
2023-03-26T04:05:03.045Z,1.17
2023-03-26T04:07:32.410Z,0.77
2023-03-26T04:10:07.992Z,0.80
2023-03-26T04:12:54.698Z,1.07
2023-03-26T04:15:39.189Z,0.90
2023-03-26T04:18:10.463Z,1.17
2023-03-26T04:20:41.106Z,0.70
2023-03-26T04:23:14.044Z,1.17
2023-03-26T04:25:48.302Z,0.80
2023-03-26T04:28:28.708Z,0.63
2023-03-26T04:31:16.758Z,0.97
2023-03-26T04:33:47.416Z,0.57
2023-03-26T04:36:18.279Z,0.63
2023-03-26T04:38:52.042Z,0.80
2023-03-26T04:41:26.385Z,0.97
2023-03-26T04:44:03.284Z,1.20
2023-03-26T04:46:55.245Z,1.50
2023-03-26T04:49:32.963Z,0.83
2023-03-26T04:52:01.203Z,0.63
2023-03-26T04:54:58.811Z,0.80
2023-03-26T04:57:33.794Z,0.73
2023-03-26T05:00:19.452Z,0.50
2023-03-26T05:02:59.742Z,0.73
2023-03-26T05:05:29.093Z,0.80
2023-03-26T05:07:59.565Z,1.17
2023-03-26T05:10:27.856Z,0.53
2023-03-26T05:13:04.543Z,0.90
2023-03-26T05:15:36.513Z,0.80
2023-03-26T05:18:16.241Z,0.70
2023-03-26T05:20:48.610Z,0.57
2023-03-26T05:23:16.884Z,0.73
2023-03-26T05:26:04.514Z,0.77
2023-03-26T05:28:32.788Z,0.93
2023-03-26T05:31:08.268Z,0.50
2023-03-26T05:33:41.174Z,0.80
2023-03-26T05:36:15.293Z,1.53
2023-03-26T05:38:57.946Z,1.13
2023-03-26T05:41:49.110Z,0.70
2023-03-26T05:44:17.959Z,1.40
2023-03-26T05:46:46.337Z,0.80
2023-03-26T05:49:22.971Z,0.97
2023-03-26T05:51:50.988Z,0.90
2023-03-26T05:54:54.277Z,1.00
2023-03-26T05:58:06.506Z,1.00
2023-03-26T06:00:58.528Z,0.77
2023-03-26T06:03:35.283Z,1.07
2023-03-26T06:06:19.353Z,0.90
2023-03-26T06:09:01.561Z,1.20
2023-03-26T06:11:32.289Z,1.27
2023-03-26T06:14:02.010Z,1.27
2023-03-26T06:16:30.548Z,1.03
2023-03-26T06:19:11.242Z,0.90
2023-03-26T06:21:58.438Z,0.73
2023-03-26T06:24:31.823Z,0.80
2023-03-26T06:27:21.748Z,1.40
2023-03-26T06:30:13.446Z,0.60
2023-03-26T06:33:01.357Z,1.20
2023-03-26T06:35:34.132Z,1.50
2023-03-26T06:38:04.332Z,1.00
2023-03-26T06:40:34.266Z,1.00
2023-03-26T06:43:40.500Z,1.20
2023-03-26T06:46:27.961Z,0.70
2023-03-26T06:49:14.758Z,0.80
2023-03-26T06:52:02.916Z,1.10
2023-03-26T06:55:03.189Z,1.43
2023-03-26T06:57:50.224Z,1.57
2023-03-26T07:00:54.521Z,0.60
2023-03-26T07:03:41.380Z,1.23
2023-03-26T07:06:41.956Z,1.50
2023-03-26T07:09:30.375Z,0.73
2023-03-26T07:12:18.660Z,0.80
2023-03-26T07:15:07.000Z,0.83
2023-03-26T07:17:49.147Z,0.63
2023-03-26T07:20:23.856Z,0.83
2023-03-26T07:22:52.726Z,0.93
2023-03-26T07:25:36.015Z,1.20
2023-03-26T07:28:26.746Z,0.90
2023-03-26T07:31:27.199Z,0.77
2023-03-26T07:34:27.413Z,1.30
2023-03-26T07:37:16.884Z,0.80
2023-03-26T07:40:25.617Z,1.27
2023-03-26T07:43:26.607Z,0.90
2023-03-26T07:46:13.287Z,1.10
2023-03-26T07:49:14.533Z,1.50
2023-03-26T07:52:02.464Z,1.00
2023-03-26T07:54:49.873Z,1.00
2023-03-26T07:57:49.138Z,0.80
2023-03-26T08:00:42.562Z,0.73
2023-03-26T08:03:26.949Z,1.20
2023-03-26T08:06:03.053Z,1.00
2023-03-26T08:08:49.100Z,1.20
2023-03-26T08:11:54.288Z,0.70
2023-03-26T08:14:33.891Z,0.77
2023-03-26T08:17:11.041Z,1.07
2023-03-26T08:19:56.569Z,0.73
2023-03-26T08:22:28.724Z,1.07
2023-03-26T08:25:16.748Z,0.60
2023-03-26T08:27:52.248Z,0.87
2023-03-26T08:30:23.138Z,0.60
2023-03-26T08:32:56.673Z,0.50
2023-03-26T08:35:25.517Z,0.80
2023-03-26T08:37:53.543Z,1.07
2023-03-26T08:40:43.016Z,1.40
2023-03-26T08:43:50.854Z,1.20
2023-03-26T08:46:59.475Z,1.17
2023-03-26T08:50:10.821Z,0.77
2023-03-26T08:53:03.474Z,0.70
2023-03-26T08:55:50.608Z,1.97
2023-03-26T08:58:51.917Z,0.80
2023-03-26T09:01:48.554Z,0.43
2023-03-26T09:04:41.335Z,1.17
2023-03-26T09:07:48.709Z,1.20
2023-03-26T09:10:47.299Z,0.40
2023-03-26T09:13:54.490Z,0.67
2023-03-26T09:16:41.287Z,0.60
2023-03-26T09:19:45.444Z,0.50
2023-03-26T09:22:59.906Z,0.90
2023-03-26T09:25:50.147Z,0.60
2023-03-26T09:28:42.878Z,0.90
2023-03-26T09:31:58.300Z,0.60
2023-03-26T09:34:31.977Z,0.43
2023-03-26T09:37:18.731Z,1.20
2023-03-26T09:40:01.986Z,1.20
2023-03-26T09:42:42.670Z,0.70
2023-03-26T09:45:43.337Z,1.00
2023-03-26T09:48:48.945Z,0.90
2023-03-26T09:51:38.114Z,0.80
2023-03-26T09:54:21.763Z,0.70
2023-03-26T09:56:57.758Z,0.63
2023-03-26T09:59:53.128Z,0.83
2023-03-26T10:02:46.733Z,0.40
2023-03-26T10:05:48.585Z,0.90
2023-03-26T10:08:48.110Z,0.67
2023-03-26T10:11:23.583Z,1.10
2023-03-26T10:14:04.998Z,0.43
2023-03-26T10:16:42.281Z,0.67
2023-03-26T10:19:36.858Z,0.40
2023-03-26T10:22:16.032Z,0.67
2023-03-26T10:25:16.605Z,0.97
2023-03-26T10:27:52.354Z,0.90
2023-03-26T10:30:36.601Z,1.17
2023-03-26T10:33:15.766Z,1.10
2023-03-26T10:35:54.367Z,0.97
2023-03-26T10:38:32.232Z,0.67
2023-03-26T10:41:07.538Z,0.80
2023-03-26T10:44:08.891Z,0.40
2023-03-26T10:47:13.258Z,0.40
2023-03-26T10:49:55.955Z,1.03
2023-03-26T10:52:26.130Z,0.73
2023-03-26T10:55:00.813Z,0.77
2023-03-26T10:57:38.853Z,0.60
2023-03-26T11:00:16.633Z,0.63
2023-03-26T11:02:54.631Z,1.40
2023-03-26T11:05:41.345Z,0.60
2023-03-26T11:08:15.318Z,0.83
2023-03-26T11:10:51.920Z,1.10
2023-03-26T11:13:26.683Z,0.40
2023-03-26T11:16:01.515Z,0.67
2023-03-26T11:18:36.647Z,0.83
2023-03-26T11:21:19.484Z,1.47
2023-03-26T11:24:05.069Z,0.70
2023-03-26T11:26:43.120Z,1.77
2023-03-26T11:29:33.723Z,0.73
2023-03-26T11:35:45.862Z,0.83
2023-03-26T11:38:22.824Z,0.77
2023-03-26T11:40:55.385Z,0.50
2023-03-26T11:43:40.422Z,1.30
2023-03-26T11:50:09.497Z,1.50
2023-03-26T11:52:37.603Z,2.20
2023-03-26T11:55:08.050Z,1.33
2023-03-26T11:57:38.177Z,1.23
2023-03-26T12:00:16.660Z,1.10
2023-03-26T12:02:46.614Z,0.93
2023-03-26T12:05:20.673Z,0.47
2023-03-26T12:07:53.380Z,0.70
2023-03-26T12:10:32.102Z,0.93
2023-03-26T12:13:02.376Z,1.20
2023-03-26T12:15:32.091Z,1.30
2023-03-26T12:18:18.812Z,0.67
2023-03-26T12:20:48.231Z,0.70
2023-03-26T12:23:37.558Z,0.63
2023-03-26T12:26:16.048Z,0.93
2023-03-26T12:28:49.284Z,1.80
2023-03-26T12:31:19.528Z,1.10
2023-03-26T12:34:05.998Z,1.13
2023-03-26T12:36:35.904Z,1.20
2023-03-26T12:40:07.370Z,0.90
2023-03-26T12:44:46.409Z,0.97
2023-03-26T12:45:17.200Z,0.80
2023-03-26T12:47:58.042Z,1.00
2023-03-26T12:50:37.154Z,0.60
2023-03-26T12:53:19.216Z,1.00
2023-03-26T12:56:00.690Z,0.40
2023-03-26T12:58:55.081Z,0.80
2023-03-26T13:01:29.329Z,0.97
2023-03-26T13:04:13.397Z,0.63
2023-03-26T13:06:59.049Z,0.67
2023-03-26T13:09:53.319Z,1.13
2023-03-26T13:12:31.982Z,1.60
2023-03-26T13:15:17.710Z,1.23
2023-03-26T13:17:54.006Z,0.50
2023-03-26T13:20:33.156Z,3.63
2023-03-26T13:23:10.234Z,2.40
2023-03-26T13:25:45.577Z,3.63
2023-03-26T13:28:24.901Z,6.33
2023-03-26T13:31:03.947Z,5.40
2023-03-26T13:33:40.970Z,10.97
2023-03-26T13:36:23.701Z,0.83
2023-03-26T13:39:05.069Z,0.87
2023-03-26T13:41:47.641Z,0.60
2023-03-26T13:44:24.448Z,0.40
2023-03-26T13:47:00.442Z,0.40
2023-03-26T13:49:37.378Z,0.20
2023-03-26T13:52:09.300Z,0.60
2023-03-26T13:54:44.160Z,0.23
2023-03-26T13:57:16.717Z,0.30
2023-03-26T13:59:51.705Z,0.30
2023-03-26T14:02:28.628Z,0.30
2023-03-26T14:05:01.275Z,0.57
2023-03-26T14:07:35.460Z,0.30
2023-03-26T14:10:07.858Z,0.60
2023-03-26T14:12:49.429Z,0.20
2023-03-26T14:15:25.394Z,0.40
2023-03-26T14:18:01.079Z,0.20
2023-03-26T14:20:57.833Z,0.63
2023-03-26T14:23:59.507Z,0.33
2023-03-26T14:26:43.385Z,0.40
2023-03-26T14:29:34.928Z,0.20
2023-03-26T14:32:24.558Z,0.47
2023-03-26T14:35:09.413Z,0.20
2023-03-26T14:37:53.795Z,0.30
2023-03-26T14:40:30.884Z,0.20
2023-03-26T14:43:23.589Z,0.70
2023-03-26T14:46:00.685Z,0.20
2023-03-26T14:49:03.010Z,0.30
2023-03-26T14:51:55.136Z,0.40
2023-03-26T14:54:27.096Z,0.30
2023-03-26T14:57:27.658Z,0.20
2023-03-26T15:00:40.930Z,0.20
2023-03-26T15:04:01.267Z,0.20
2023-03-26T15:07:30.806Z,0.20
2023-03-26T15:10:32.248Z,0.40
2023-03-26T15:13:26.490Z,0.20
2023-03-26T15:16:31.089Z,0.47
2023-03-26T15:19:34.516Z,1.10
2023-03-26T15:22:30.534Z,0.70
2023-03-26T15:25:24.437Z,0.70
2023-03-26T15:28:25.603Z,0.40
2023-03-26T15:31:16.629Z,0.30
2023-03-26T15:34:12.514Z,0.83
2023-03-26T15:37:23.823Z,0.60
2023-03-26T15:40:25.553Z,1.30
2023-03-26T15:43:07.413Z,0.60
2023-03-26T15:45:38.635Z,0.93
2023-03-26T15:48:22.816Z,0.30
2023-03-26T15:50:55.802Z,0.70
2023-03-26T15:53:35.513Z,0.40
2023-03-26T15:56:25.946Z,0.83
2023-03-26T15:59:01.748Z,0.40
2023-03-26T16:01:46.113Z,0.70
2023-03-26T16:04:25.006Z,0.40
2023-03-26T16:11:55.981Z,0.60
2023-03-26T16:14:43.362Z,0.30
2023-03-26T16:17:14.794Z,1.33
2023-03-26T16:19:55.897Z,0.47
2023-03-26T16:22:45.372Z,0.30
2023-03-26T16:25:29.504Z,1.67
2023-03-26T16:28:21.191Z,0.57
2023-03-26T16:31:37.778Z,1.73
2023-03-26T16:34:30.146Z,0.53
2023-03-26T16:37:00.346Z,1.90
2023-03-26T16:39:44.203Z,0.50
2023-03-26T16:42:35.766Z,0.63
2023-03-26T16:45:17.717Z,0.70
2023-03-26T16:47:56.597Z,1.50
2023-03-26T16:50:40.427Z,1.10
2023-03-26T16:53:24.123Z,1.30
2023-03-26T16:55:57.865Z,1.10
2023-03-26T16:58:34.351Z,1.10
2023-03-26T17:01:09.529Z,1.10
2023-03-26T17:03:50.731Z,0.63
2023-03-26T17:06:49.210Z,0.40
2023-03-26T17:09:29.585Z,1.53
2023-03-26T17:12:06.077Z,0.60
2023-03-26T17:14:48.758Z,0.40
2023-03-26T17:17:48.588Z,0.40
2023-03-26T17:20:32.923Z,0.60
2023-03-26T17:23:15.287Z,0.30
2023-03-26T17:25:54.766Z,1.60
2023-03-26T17:28:51.863Z,0.40
2023-03-26T17:31:32.592Z,0.73
2023-03-26T17:34:34.215Z,2.37
2023-03-26T17:37:05.872Z,1.30
2023-03-26T17:40:35.552Z,2.07
2023-03-26T17:43:06.526Z,1.50
2023-03-26T17:45:37.570Z,0.90
2023-03-26T17:48:11.324Z,0.93
2023-03-26T17:50:48.326Z,0.83
2023-03-26T17:53:20.798Z,0.90
2023-03-26T18:00:00.571Z,1.13
2023-03-26T18:02:38.053Z,1.33
2023-03-26T18:05:11.979Z,2.20
2023-03-26T18:08:07.173Z,1.40
2023-03-26T18:10:55.161Z,4.70
2023-03-26T18:13:45.599Z,1.67
2023-03-26T18:16:18.009Z,2.80
2023-03-26T18:18:50.902Z,2.77
2023-03-26T18:21:24.407Z,9.47
2023-03-26T18:23:53.446Z,10.07
2023-03-26T18:26:34.630Z,9.00
2023-03-26T18:29:17.681Z,12.23
2023-03-26T18:31:49.151Z,10.43
2023-03-26T18:34:19.525Z,4.00
2023-03-26T18:36:48.211Z,20.20
2023-03-26T18:39:16.985Z,3.80
2023-03-26T18:41:46.102Z,4.47
2023-03-26T18:44:16.598Z,1.60
2023-03-26T18:46:45.278Z,0.90
2023-03-26T18:49:17.220Z,1.00
2023-03-26T18:51:56.030Z,0.80
2023-03-26T18:54:26.023Z,1.13
2023-03-26T18:56:55.050Z,1.40
2023-03-26T18:59:29.047Z,1.30
2023-03-26T19:01:58.622Z,0.97
2023-03-26T19:04:30.988Z,0.60
2023-03-26T19:06:59.465Z,1.17
2023-03-26T19:09:32.152Z,2.07
2023-03-26T19:12:07.937Z,1.70
2023-03-26T19:14:51.906Z,0.70
2023-03-26T19:17:20.230Z,1.37
2023-03-26T19:19:51.057Z,1.47
2023-03-26T19:22:21.453Z,1.53
2023-03-26T19:24:58.383Z,1.00
2023-03-26T19:27:26.986Z,24.50
2023-03-26T19:29:55.113Z,76.33
2023-03-26T19:32:32.425Z,58.10
2023-03-26T19:35:04.449Z,18.87
2023-03-26T19:37:33.157Z,4.60
2023-03-26T19:40:07.714Z,1.13
2023-03-26T19:42:43.477Z,1.70
2023-03-26T19:45:17.714Z,1.20
2023-03-26T19:47:52.079Z,1.63
2023-03-26T19:50:29.839Z,1.90
2023-03-26T19:53:22.060Z,1.10
2023-03-26T19:55:55.689Z,1.30
2023-03-26T19:58:23.942Z,1.77
2023-03-26T20:00:51.940Z,0.83
2023-03-26T20:03:26.547Z,0.97
2023-03-26T20:05:56.237Z,0.70
2023-03-26T20:08:27.076Z,0.60
2023-03-26T20:10:56.934Z,1.77
2023-03-26T20:13:25.237Z,1.17
2023-03-26T20:16:05.668Z,0.83
2023-03-26T20:18:34.497Z,0.73
2023-03-26T20:21:11.068Z,0.90
2023-03-26T20:23:40.085Z,0.80
2023-03-26T20:26:12.744Z,1.55
2023-03-26T20:28:48.437Z,1.20
2023-03-26T20:31:19.450Z,0.65
2023-03-26T20:33:47.981Z,0.70
2023-03-26T20:36:33.900Z,0.67
2023-03-26T20:39:05.834Z,1.05
2023-03-26T20:41:35.204Z,0.70
2023-03-26T20:44:04.839Z,0.95
2023-03-26T20:46:33.235Z,0.70
2023-03-26T20:49:02.342Z,0.60
2023-03-26T20:51:31.838Z,0.50
2023-03-26T20:54:00.538Z,0.73
2023-03-26T20:56:29.194Z,0.60
2023-03-26T20:59:09.822Z,0.60
2023-03-26T21:01:39.557Z,0.70
2023-03-26T21:04:07.737Z,0.50
2023-03-26T21:06:37.280Z,0.50
2023-03-26T21:09:06.574Z,0.67
2023-03-26T21:11:46.089Z,0.77
2023-03-26T21:14:20.800Z,0.50
2023-03-26T21:16:49.584Z,0.83
2023-03-26T21:19:18.182Z,0.70
2023-03-26T21:21:57.627Z,0.90
2023-03-26T21:24:45.660Z,0.70
2023-03-26T21:27:22.332Z,0.30
2023-03-26T21:29:52.594Z,0.40
2023-03-26T21:32:21.388Z,0.43
2023-03-26T21:34:58.780Z,0.50
2023-03-26T21:37:29.822Z,0.50
2023-03-26T21:39:59.793Z,0.40
2023-03-26T21:42:29.818Z,0.40
2023-03-26T21:44:58.587Z,0.40
2023-03-26T21:47:27.194Z,0.27
2023-03-26T21:49:55.954Z,0.32
2023-03-26T21:52:25.242Z,0.30
2023-03-26T21:54:55.597Z,0.20
2023-03-26T21:57:42.405Z,0.30
2023-03-26T22:00:15.340Z,0.30
2023-03-26T22:02:59.551Z,0.20
2023-03-26T22:05:33.529Z,0.20
2023-03-26T22:08:03.086Z,0.30
2023-03-26T22:10:32.988Z,0.53
2023-03-26T22:13:01.084Z,0.20
2023-03-26T22:15:32.019Z,0.20
2023-03-26T22:18:03.954Z,0.20
2023-03-26T22:20:32.005Z,0.50
2023-03-26T22:23:00.976Z,0.20
2023-03-26T22:25:29.019Z,0.30
2023-03-26T22:27:58.515Z,0.47
2023-03-26T22:30:27.261Z,0.20
2023-03-26T22:32:55.671Z,0.30
2023-03-26T22:35:24.225Z,0.20
2023-03-26T22:37:53.022Z,0.20
2023-03-26T22:40:29.482Z,0.20
2023-03-26T22:42:58.840Z,0.40
2023-03-26T22:45:27.950Z,0.20
2023-03-26T22:48:03.834Z,0.20
2023-03-26T22:50:32.935Z,0.45
2023-03-26T22:53:01.067Z,0.20
2023-03-26T22:55:30.014Z,0.20
2023-03-26T22:57:59.590Z,0.20
2023-03-26T23:00:27.891Z,0.20
2023-03-26T23:03:00.351Z,0.20
2023-03-26T23:05:29.387Z,0.30
2023-03-26T23:07:58.281Z,0.20
2023-03-26T23:10:26.400Z,0.20
2023-03-26T23:12:54.400Z,0.20
2023-03-26T23:15:25.941Z,0.20
2023-03-26T23:17:54.126Z,0.30
2023-03-26T23:20:23.335Z,0.30
2023-03-26T23:22:51.309Z,0.30
2023-03-26T23:25:20.091Z,0.30
2023-03-26T23:27:48.431Z,0.20
2023-03-26T23:30:16.858Z,0.30
2023-03-26T23:32:47.085Z,0.30
2023-03-26T23:35:15.643Z,0.20
2023-03-26T23:37:43.769Z,0.20
2023-03-26T23:40:13.851Z,0.20
2023-03-26T23:42:42.437Z,0.20
2023-03-26T23:45:12.335Z,0.20
2023-03-26T23:47:42.410Z,0.20
2023-03-26T23:50:13.151Z,0.20
2023-03-26T23:52:41.184Z,0.20
2023-03-26T23:55:09.944Z,0.20
2023-03-26T23:57:38.183Z,0.20
